Time;durP1;ratioP1;P1;durP2;ratioP2;P2;SDS_P1;SDS_P2;PMS_P1;PMS_P2;Temp;Humidity;BMP_temperature;BMP_pressure;BME280_temperature;BME280_humidity;BME280_pressure;Samples;Min_cycle;Max_cycle;Signal;HPM_P1;HPM_P2
2023/05/30 00:06:44;;;;;;;;;;;16.80;77.80;;;;;;21000431;28;20415;-57
2023/05/30 00:16:45;;;;;;;;;;;16.80;78.20;;;;;;20998749;28;20362;-57
2023/05/30 00:26:45;;;;;;;;;;;16.70;77.90;;;;;;20997718;28;19954;-58
2023/05/30 00:36:46;;;;;;;;;;;16.70;77.50;;;;;;20996365;28;20008;-56
2023/05/30 00:46:46;;;;;;;;;;;16.60;77.60;;;;;;20997008;28;19928;-57
2023/05/30 00:56:47;;;;;;;;;;;16.60;77.60;;;;;;20996621;28;19929;-57
2023/05/30 01:06:48;;;;;;;;;;;16.50;77.80;;;;;;20996159;28;19983;-57
2023/05/30 01:16:53;;;;;;;;;;;16.40;78.10;;;;;;20995217;28;20007;-56
2023/05/30 01:27:23;;;;;;;;;;;16.20;78.80;;;;;;20995297;28;20249;-56
2023/05/30 01:37:23;;;;;;;;;;;16.20;78.60;;;;;;20994711;28;20011;-57
2023/05/30 01:47:24;;;;;;;;;;;16.00;79.10;;;;;;21010135;28;20411;-57
2023/05/30 01:57:25;;;;;;;;;;;16.00;79.40;;;;;;21009773;28;20421;-57
2023/05/30 02:07:27;;;;;;;;;;;16.00;79.20;;;;;;21009465;28;19932;-57
2023/05/30 02:17:28;;;;;;;;;;;16.10;78.50;;;;;;21007986;28;19974;-58
2023/05/30 02:27:29;;;;;;;;;;;15.90;78.70;;;;;;21008111;28;20022;-58
2023/05/30 02:37:30;;;;;;;;;;;16.00;78.80;;;;;;21007319;28;19967;-57
2023/05/30 02:47:31;;;;;;;;;;;15.90;79.40;;;;;;21006757;28;20012;-57
2023/05/30 02:57:32;;;;;;;;;;;16.00;78.30;;;;;;21005017;28;20267;-57
2023/05/30 03:07:32;;;;;;;;;;;16.00;78.10;;;;;;21003617;28;19932;-57
2023/05/30 03:17:33;;;;;;;;;;;16.20;77.70;;;;;;21003826;28;20381;-58
2023/05/30 03:27:34;;;;;;;;;;;16.10;78.40;;;;;;21004578;28;20207;-56
2023/05/30 03:37:34;;;;;;;;;;;16.10;78.10;;;;;;21002680;28;19928;-58
2023/05/30 03:47:35;;;;;;;;;;;16.10;77.80;;;;;;21003213;28;20015;-57
2023/05/30 03:57:35;;;;;;;;;;;15.90;78.30;;;;;;21000743;28;19924;-57
2023/05/30 04:07:36;;;;;;;;;;;15.90;78.80;;;;;;21000535;28;20365;-57
2023/05/30 04:17:37;;;;;;;;;;;15.90;78.50;;;;;;21000316;28;19932;-57
2023/05/30 04:27:39;;;;;;;;;;;16.00;78.10;;;;;;20999800;28;19932;-57
2023/05/30 04:37:43;;;;;;;;;;;15.90;77.70;;;;;;20997647;28;19932;-58
2023/05/30 04:47:46;;;;;;;;;;;15.90;77.70;;;;;;20998023;28;19924;-57
2023/05/30 04:57:47;;;;;;;;;;;16.00;76.80;;;;;;20996353;28;19935;-57
2023/05/30 05:07:48;;;;;;;;;;;16.10;75.70;;;;;;20997177;28;20016;-57
2023/05/30 05:17:50;;;;;;;;;;;16.10;75.20;;;;;;20995851;28;19935;-56
2023/05/30 05:27:50;;;;;;;;;;;16.10;75.00;;;;;;20995200;28;19970;-57
2023/05/30 05:37:51;;;;;;;;;;;16.10;74.50;;;;;;20995891;28;20312;-56
2023/05/30 05:47:51;;;;;;;;;;;16.20;74.80;;;;;;20995603;28;20008;-57
2023/05/30 05:57:52;;;;;;;;;;;16.30;74.00;;;;;;20995574;28;20140;-57
2023/05/30 06:07:55;;;;;;;;;;;16.30;73.90;;;;;;20994931;28;19969;-57
2023/05/30 06:17:55;;;;;;;;;;;16.60;73.50;;;;;;20993766;28;20051;-58
2023/05/30 06:27:56;;;;;;;;;;;16.70;73.10;;;;;;20998872;28;19975;-56
2023/05/30 06:37:56;;;;;;;;;;;16.80;73.20;;;;;;21008148;28;20431;-57
2023/05/30 06:47:57;;;;;;;;;;;17.00;72.80;;;;;;21007733;28;20023;-57
2023/05/30 06:57:58;;;;;;;;;;;17.10;72.90;;;;;;21006273;28;20027;-57
2023/05/30 07:07:59;;;;;;;;;;;17.20;72.60;;;;;;21005788;28;19924;-56
2023/05/30 07:18:00;;;;;;;;;;;17.30;72.20;;;;;;21003939;28;19924;-57
2023/05/30 07:28:00;;;;;;;;;;;17.50;72.00;;;;;;21005054;28;19931;-57
2023/05/30 07:38:01;;;;;;;;;;;17.70;70.50;;;;;;21002841;28;19928;-58
2023/05/30 07:48:01;;;;;;;;;;;18.00;69.70;;;;;;21003052;28;19969;-56
2023/05/30 07:58:02;;;;;;;;;;;18.50;68.30;;;;;;21002621;28;19925;-56
2023/05/30 08:08:06;;;;;;;;;;;19.10;66.30;;;;;;20999890;28;19931;-56
2023/05/30 08:18:08;;;;;;;;;;;19.30;66.20;;;;;;20999351;28;20030;-56
2023/05/30 08:28:12;;;;;;;;;;;19.60;65.10;;;;;;20998722;28;19924;-56
2023/05/30 08:38:13;;;;;;;;;;;20.10;63.50;;;;;;20998880;28;19925;-56
2023/05/30 08:48:17;;;;;;;;;;;20.30;62.50;;;;;;20994968;28;19935;-57
2023/05/30 08:58:26;;;;;;;;;;;20.70;60.80;;;;;;20996917;28;19951;-57
2023/05/30 09:08:27;;;;;;;;;;;20.90;59.60;;;;;;20997278;28;19970;-57
2023/05/30 09:18:34;;;;;;;;;;;20.90;59.70;;;;;;20996251;28;20008;-61
2023/05/30 09:28:35;;;;;;;;;;;20.70;58.70;;;;;;20996420;28;20302;-61
2023/05/30 09:38:35;;;;;;;;;;;20.70;59.00;;;;;;20995044;28;20403;-59
2023/05/30 09:48:39;;;;;;;;;;;20.70;58.90;;;;;;20995837;28;19972;-59
2023/05/30 09:58:40;;;;;;;;;;;21.10;58.00;;;;;;20989551;28;19925;-60
2023/05/30 10:08:50;;;;;;;;;;;21.50;56.10;;;;;;21009615;28;20413;-61
2023/05/30 10:18:55;;;;;;;;;;;21.90;54.60;;;;;;21008233;28;19950;-59
2023/05/30 10:28:56;;;;;;;;;;;22.30;53.70;;;;;;20999234;28;20062;-60
2023/05/30 10:39:03;;;;;;;;;;;22.40;52.60;;;;;;21004126;28;19925;-59
2023/05/30 10:49:12;;;;;;;;;;;22.20;52.10;;;;;;21006372;28;19980;-61
2023/05/30 10:59:14;;;;;;;;;;;22.20;52.70;;;;;;21007106;28;19924;-60
2023/05/30 11:09:15;;;;;;;;;;;22.40;51.70;;;;;;21005690;28;20296;-61
2023/05/30 11:19:18;;;;;;;;;;;22.20;52.00;;;;;;21003634;28;20384;-60
2023/05/30 11:29:31;;;;;;;;;;;22.10;51.70;;;;;;21005135;28;20011;-60
2023/05/30 11:39:32;;;;;;;;;;;22.40;51.40;;;;;;21003964;28;20015;-61
2023/05/30 11:49:33;;;;;;;;;;;22.60;49.00;;;;;;21001144;28;19925;-57
2023/05/30 11:59:33;;;;;;;;;;;22.70;48.60;;;;;;20999315;28;19931;-58
2023/05/30 12:09:36;;;;;;;;;;;22.90;47.60;;;;;;21000057;28;20395;-57
2023/05/30 12:19:36;;;;;;;;;;;23.30;45.50;;;;;;20997625;28;19931;-57
2023/05/30 12:29:37;;;;;;;;;;;23.40;45.30;;;;;;20996557;28;19925;-57
2023/05/30 12:39:44;;;;;;;;;;;23.60;44.60;;;;;;20995269;28;20380;-57
2023/05/30 12:49:44;;;;;;;;;;;23.60;45.70;;;;;;20996902;28;19925;-58
2023/05/30 12:59:46;;;;;;;;;;;23.60;48.60;;;;;;20997030;28;19930;-58
2023/05/30 13:09:46;;;;;;;;;;;23.50;48.50;;;;;;20996719;28;19924;-60
2023/05/30 13:19:47;;;;;;;;;;;23.20;47.80;;;;;;20995685;28;20297;-57
2023/05/30 13:29:48;;;;;;;;;;;23.40;48.10;;;;;;20996828;28;19928;-57
2023/05/30 13:39:48;;;;;;;;;;;23.90;46.50;;;;;;21007846;28;20019;-57
2023/05/30 13:49:49;;;;;;;;;;;24.00;46.70;;;;;;21013082;28;19986;-57
2023/05/30 13:59:50;;;;;;;;;;;23.70;46.40;;;;;;21010312;28;19954;-59
2023/05/30 14:09:50;;;;;;;;;;;23.60;48.00;;;;;;21010862;28;20369;-55
2023/05/30 14:19:51;;;;;;;;;;;23.90;48.80;;;;;;21008462;28;19925;-57
2023/05/30 14:29:51;;;;;;;;;;;23.70;49.30;;;;;;21009419;28;19924;-57
2023/05/30 14:39:52;;;;;;;;;;;23.60;49.50;;;;;;21008526;28;19929;-57
2023/05/30 14:49:53;;;;;;;;;;;23.60;49.50;;;;;;21005103;28;19931;-57
2023/05/30 14:59:53;;;;;;;;;;;23.60;49.70;;;;;;21006772;28;19971;-58
2023/05/30 15:09:54;;;;;;;;;;;23.60;50.30;;;;;;21005269;28;20301;-59
2023/05/30 15:19:55;;;;;;;;;;;23.60;49.20;;;;;;21004133;28;19924;-57
2023/05/30 15:29:55;;;;;;;;;;;23.60;48.10;;;;;;21004467;28;19959;-62
2023/05/30 15:39:56;;;;;;;;;;;23.50;48.10;;;;;;21001301;28;19924;-59
2023/05/30 15:49:57;;;;;;;;;;;23.40;47.30;;;;;;21002279;28;20400;-57
2023/05/30 15:59:57;;;;;;;;;;;23.10;48.30;;;;;;20999902;28;19928;-62
2023/05/30 16:09:58;;;;;;;;;;;23.00;49.00;;;;;;20999602;28;19971;-57
2023/05/30 16:19:58;;;;;;;;;;;22.70;49.40;;;;;;20989803;28;19925;-58
2023/05/30 16:29:59;;;;;;;;;;;22.90;52.10;;;;;;20994314;28;19924;-56
2023/05/30 16:40:00;;;;;;;;;;;22.90;52.30;;;;;;20996672;28;19925;-58
2023/05/30 16:50:00;;;;;;;;;;;22.60;51.50;;;;;;20996093;28;19924;-55
2023/05/30 17:00:02;;;;;;;;;;;22.20;56.00;;;;;;20995528;28;19932;-58
2023/05/30 17:10:03;;;;;;;;;;;22.10;57.10;;;;;;20995084;28;19932;-57
2023/05/30 17:20:04;;;;;;;;;;;21.30;60.20;;;;;;20996563;28;19932;-56
2023/05/30 17:30:07;;;;;;;;;;;20.70;61.70;;;;;;20993860;28;21453;-57
2023/05/30 17:40:08;;;;;;;;;;;20.30;64.50;;;;;;20994027;28;19982;-58
2023/05/30 17:50:09;;;;;;;;;;;19.70;65.90;;;;;;20995022;28;20429;-57
2023/05/30 18:00:12;;;;;;;;;;;19.40;66.30;;;;;;20993668;28;19925;-57
2023/05/30 18:10:13;;;;;;;;;;;19.10;67.00;;;;;;20993733;28;19924;-56
2023/05/30 18:20:13;;;;;;;;;;;18.90;67.40;;;;;;20993517;28;19930;-57
2023/05/30 18:30:14;;;;;;;;;;;18.70;67.90;;;;;;21007633;28;19929;-57
2023/05/30 18:40:15;;;;;;;;;;;18.60;69.40;;;;;;21007862;28;20411;-58
2023/05/30 18:50:16;;;;;;;;;;;18.40;70.10;;;;;;21006948;28;19936;-57
2023/05/30 19:00:17;;;;;;;;;;;18.40;70.70;;;;;;21005740;28;19935;-57
2023/05/30 19:10:17;;;;;;;;;;;18.30;71.10;;;;;;21003444;28;19970;-58
2023/05/30 19:20:18;;;;;;;;;;;18.40;71.20;;;;;;21003746;28;20424;-57
2023/05/30 19:30:18;;;;;;;;;;;18.60;70.90;;;;;;21003661;28;19924;-58
2023/05/30 19:40:19;;;;;;;;;;;18.50;71.60;;;;;;21001358;28;19929;-56
2023/05/30 19:50:20;;;;;;;;;;;18.70;70.80;;;;;;20999590;28;19928;-56
2023/05/30 20:00:20;;;;;;;;;;;18.70;67.20;;;;;;20999639;28;19931;-58
2023/05/30 20:10:21;;;;;;;;;;;18.70;66.30;;;;;;20999174;28;20458;-58
2023/05/30 20:20:22;;;;;;;;;;;18.70;66.70;;;;;;20998467;28;19932;-57
2023/05/30 20:30:22;;;;;;;;;;;18.70;67.70;;;;;;20998720;28;19971;-58
2023/05/30 20:40:23;;;;;;;;;;;18.60;69.40;;;;;;20998583;28;19978;-57
2023/05/30 20:50:23;;;;;;;;;;;18.60;69.20;;;;;;20997354;28;19924;-56
2023/05/30 21:00:24;;;;;;;;;;;18.60;68.40;;;;;;20997353;28;20361;-58
2023/05/30 21:10:25;;;;;;;;;;;18.50;67.50;;;;;;20996087;28;19964;-58
2023/05/30 21:20:25;;;;;;;;;;;18.40;66.80;;;;;;20994450;28;19931;-57
2023/05/30 21:30:27;;;;;;;;;;;18.30;67.70;;;;;;20995018;28;20344;-56
2023/05/30 21:40:27;;;;;;;;;;;18.20;68.00;;;;;;20995327;28;20358;-56
2023/05/30 21:50:28;;;;;;;;;;;18.10;68.80;;;;;;20993606;28;19929;-57
2023/05/30 22:00:29;;;;;;;;;;;18.20;68.30;;;;;;21005310;28;19943;-57
2023/05/30 22:10:30;;;;;;;;;;;18.10;68.50;;;;;;21008807;28;20297;-58
2023/05/30 22:20:31;;;;;;;;;;;18.00;68.40;;;;;;21006702;28;20016;-57
2023/05/30 22:30:31;;;;;;;;;;;18.00;68.60;;;;;;21008090;28;20412;-57
2023/05/30 22:40:32;;;;;;;;;;;17.90;69.30;;;;;;21007504;28;20370;-57
2023/05/30 22:50:33;;;;;;;;;;;17.80;70.50;;;;;;21008066;28;20366;-57
2023/05/30 23:00:33;;;;;;;;;;;17.70;72.10;;;;;;21006901;28;19925;-56
2023/05/30 23:10:34;;;;;;;;;;;17.60;72.90;;;;;;21006339;28;20378;-57
2023/05/30 23:20:37;;;;;;;;;;;17.50;73.60;;;;;;21005453;28;19932;-57
2023/05/30 23:30:38;;;;;;;;;;;17.30;74.10;;;;;;21005341;28;20001;-56
2023/05/30 23:40:39;;;;;;;;;;;17.20;74.60;;;;;;21004346;28;19928;-57
2023/05/30 23:50:40;;;;;;;;;;;17.10;75.10;;;;;;21002687;28;19928;-56
